sensor_id;sensor_type;location;lat;lon;timestamp;pressure;altitude;pressure_sealevel;temperature;humidity
76022;BME280;64718;52.124;6.226;2023-11-19T00:00:22;100824.38;;;11.63;100.00
76022;BME280;64718;52.124;6.226;2023-11-19T00:02:48;100838.09;;;11.66;100.00
76022;BME280;64718;52.124;6.226;2023-11-19T00:05:15;100830.97;;;11.70;100.00
76022;BME280;64718;52.124;6.226;2023-11-19T00:07:42;100836.75;;;11.77;100.00
76022;BME280;64718;52.124;6.226;2023-11-19T00:10:08;100826.84;;;11.85;100.00
76022;BME280;64718;52.124;6.226;2023-11-19T00:12:37;100815.19;;;11.92;100.00
76022;BME280;64718;52.124;6.226;2023-11-19T00:15:06;100806.31;;;11.96;100.00
76022;BME280;64718;52.124;6.226;2023-11-19T00:17:36;100802.47;;;12.03;100.00
76022;BME280;64718;52.124;6.226;2023-11-19T00:20:03;100807.69;;;12.03;100.00
76022;BME280;64718;52.124;6.226;2023-11-19T00:22:31;100793.72;;;12.04;100.00
76022;BME280;64718;52.124;6.226;2023-11-19T00:24:58;100798.72;;;12.09;100.00
76022;BME280;64718;52.124;6.226;2023-11-19T00:27:24;100795.28;;;12.08;100.00
76022;BME280;64718;52.124;6.226;2023-11-19T00:29:51;100789.81;;;12.13;100.00
76022;BME280;64718;52.124;6.226;2023-11-19T00:32:19;100795.53;;;12.21;100.00
76022;BME280;64718;52.124;6.226;2023-11-19T00:34:45;100795.22;;;12.27;100.00
76022;BME280;64718;52.124;6.226;2023-11-19T00:37:13;100789.53;;;12.19;100.00
76022;BME280;64718;52.124;6.226;2023-11-19T00:39:40;100795.31;;;12.25;100.00
76022;BME280;64718;52.124;6.226;2023-11-19T00:42:07;100798.44;;;12.32;100.00
76022;BME280;64718;52.124;6.226;2023-11-19T00:44:33;100796.91;;;12.28;100.00
76022;BME280;64718;52.124;6.226;2023-11-19T00:47:00;100801.91;;;12.32;100.00
76022;BME280;64718;52.124;6.226;2023-11-19T00:49:28;100788.47;;;12.40;100.00
76022;BME280;64718;52.124;6.226;2023-11-19T00:51:55;100781.72;;;12.36;100.00
76022;BME280;64718;52.124;6.226;2023-11-19T00:54:21;100776.19;;;12.42;100.00
76022;BME280;64718;52.124;6.226;2023-11-19T00:56:50;100766.59;;;12.43;100.00
76022;BME280;64718;52.124;6.226;2023-11-19T00:59:17;100753.53;;;12.43;100.00
76022;BME280;64718;52.124;6.226;2023-11-19T01:01:44;100756.41;;;12.38;100.00
76022;BME280;64718;52.124;6.226;2023-11-19T01:04:10;100742.66;;;12.34;100.00
76022;BME280;64718;52.124;6.226;2023-11-19T01:06:38;100746.34;;;12.30;100.00
76022;BME280;64718;52.124;6.226;2023-11-19T01:09:05;100741.66;;;12.37;100.00
76022;BME280;64718;52.124;6.226;2023-11-19T01:11:32;100731.47;;;12.32;100.00
76022;BME280;64718;52.124;6.226;2023-11-19T01:13:58;100736.09;;;12.27;100.00
76022;BME280;64718;52.124;6.226;2023-11-19T01:16:26;100732.16;;;12.36;100.00
76022;BME280;64718;52.124;6.226;2023-11-19T01:18:52;100740.22;;;12.31;100.00
76022;BME280;64718;52.124;6.226;2023-11-19T01:21:19;100733.25;;;12.32;100.00
76022;BME280;64718;52.124;6.226;2023-11-19T01:23:48;100740.06;;;12.34;100.00
76022;BME280;64718;52.124;6.226;2023-11-19T01:26:15;100744.19;;;12.39;100.00
76022;BME280;64718;52.124;6.226;2023-11-19T01:28:42;100752.09;;;12.37;100.00
76022;BME280;64718;52.124;6.226;2023-11-19T01:31:10;100760.75;;;12.38;100.00
76022;BME280;64718;52.124;6.226;2023-11-19T01:33:38;100756.41;;;12.38;100.00
76022;BME280;64718;52.124;6.226;2023-11-19T01:36:05;100767.50;;;12.42;100.00
76022;BME280;64718;52.124;6.226;2023-11-19T01:38:33;100761.59;;;12.38;100.00
76022;BME280;64718;52.124;6.226;2023-11-19T01:41:01;100753.72;;;12.40;100.00
76022;BME280;64718;52.124;6.226;2023-11-19T01:43:32;100751.09;;;12.40;100.00
76022;BME280;64718;52.124;6.226;2023-11-19T01:45:59;100743.13;;;12.43;100.00
76022;BME280;64718;52.124;6.226;2023-11-19T01:48:26;100752.03;;;12.39;100.00
76022;BME280;64718;52.124;6.226;2023-11-19T01:50:53;100741.44;;;12.42;100.00
76022;BME280;64718;52.124;6.226;2023-11-19T01:53:20;100729.63;;;12.34;100.00
76022;BME280;64718;52.124;6.226;2023-11-19T01:55:47;100731.84;;;12.42;100.00
76022;BME280;64718;52.124;6.226;2023-11-19T01:58:16;100727.66;;;12.22;100.00
76022;BME280;64718;52.124;6.226;2023-11-19T02:00:44;100718.59;;;12.29;100.00
76022;BME280;64718;52.124;6.226;2023-11-19T02:03:11;100712.16;;;12.19;100.00
76022;BME280;64718;52.124;6.226;2023-11-19T02:05:39;100715.91;;;12.14;100.00
76022;BME280;64718;52.124;6.226;2023-11-19T02:08:05;100729.81;;;12.14;100.00
76022;BME280;64718;52.124;6.226;2023-11-19T02:10:32;100740.84;;;12.19;100.00
76022;BME280;64718;52.124;6.226;2023-11-19T02:12:59;100730.78;;;12.29;100.00
76022;BME280;64718;52.124;6.226;2023-11-19T02:15:27;100724.88;;;12.25;100.00
76022;BME280;64718;52.124;6.226;2023-11-19T02:17:53;100717.81;;;12.27;100.00
76022;BME280;64718;52.124;6.226;2023-11-19T02:20:20;100706.56;;;12.27;100.00
76022;BME280;64718;52.124;6.226;2023-11-19T02:22:46;100701.41;;;12.25;100.00
76022;BME280;64718;52.124;6.226;2023-11-19T02:25:30;100693.34;;;12.30;100.00
76022;BME280;64718;52.124;6.226;2023-11-19T02:28:01;100697.72;;;12.29;100.00
76022;BME280;64718;52.124;6.226;2023-11-19T02:30:27;100701.41;;;12.25;100.00
76022;BME280;64718;52.124;6.226;2023-11-19T02:32:54;100708.38;;;12.42;100.00
76022;BME280;64718;52.124;6.226;2023-11-19T02:35:22;100710.28;;;12.39;100.00
76022;BME280;64718;52.124;6.226;2023-11-19T02:37:49;100709.63;;;12.51;100.00
76022;BME280;64718;52.124;6.226;2023-11-19T02:40:15;100709.88;;;12.46;100.00
76022;BME280;64718;52.124;6.226;2023-11-19T02:42:42;100712.28;;;12.33;100.00
76022;BME280;64718;52.124;6.226;2023-11-19T02:45:10;100712.69;;;12.26;100.00
76022;BME280;64718;52.124;6.226;2023-11-19T02:47:39;100718.75;;;12.26;100.00
76022;BME280;64718;52.124;6.226;2023-11-19T02:50:08;100717.66;;;12.30;100.00
76022;BME280;64718;52.124;6.226;2023-11-19T02:52:39;100717.09;;;12.41;100.00
76022;BME280;64718;52.124;6.226;2023-11-19T02:55:06;100720.72;;;12.39;100.00
76022;BME280;64718;52.124;6.226;2023-11-19T02:57:35;100728.53;;;12.39;100.00
76022;BME280;64718;52.124;6.226;2023-11-19T03:00:02;100715.75;;;12.34;100.00
76022;BME280;64718;52.124;6.226;2023-11-19T03:02:39;100722.50;;;12.38;100.00
76022;BME280;64718;52.124;6.226;2023-11-19T03:05:10;100718.84;;;12.25;100.00
76022;BME280;64718;52.124;6.226;2023-11-19T03:07:37;100705.72;;;12.26;100.00
76022;BME280;64718;52.124;6.226;2023-11-19T03:10:04;100712.44;;;12.30;100.00
76022;BME280;64718;52.124;6.226;2023-11-19T03:12:31;100708.41;;;12.25;100.00
76022;BME280;64718;52.124;6.226;2023-11-19T03:14:58;100700.56;;;12.25;100.00
76022;BME280;64718;52.124;6.226;2023-11-19T03:17:24;100700.97;;;12.17;100.00
76022;BME280;64718;52.124;6.226;2023-11-19T03:19:53;100707.09;;;12.16;100.00
76022;BME280;64718;52.124;6.226;2023-11-19T03:22:19;100716.38;;;12.04;100.00
76022;BME280;64718;52.124;6.226;2023-11-19T03:24:46;100706.03;;;12.20;100.00
76022;BME280;64718;52.124;6.226;2023-11-19T03:27:12;100710.69;;;12.14;100.00
76022;BME280;64718;52.124;6.226;2023-11-19T03:29:39;100712.41;;;12.15;100.00
76022;BME280;64718;52.124;6.226;2023-11-19T03:32:06;100717.13;;;12.07;100.00
76022;BME280;64718;52.124;6.226;2023-11-19T03:34:33;100701.19;;;12.13;100.00
76022;BME280;64718;52.124;6.226;2023-11-19T03:37:01;100712.16;;;12.02;100.00
76022;BME280;64718;52.124;6.226;2023-11-19T03:39:29;100724.19;;;12.04;100.00
76022;BME280;64718;52.124;6.226;2023-11-19T03:41:55;100727.47;;;12.08;100.00
76022;BME280;64718;52.124;6.226;2023-11-19T03:44:22;100731.94;;;12.06;100.00
76022;BME280;64718;52.124;6.226;2023-11-19T03:46:48;100728.56;;;12.04;100.00
76022;BME280;64718;52.124;6.226;2023-11-19T03:49:15;100716.69;;;11.98;100.00
76022;BME280;64718;52.124;6.226;2023-11-19T03:51:41;100709.03;;;11.95;100.00
76022;BME280;64718;52.124;6.226;2023-11-19T03:54:09;100704.81;;;11.93;100.00
76022;BME280;64718;52.124;6.226;2023-11-19T03:56:36;100704.41;;;11.83;100.00
76022;BME280;64718;52.124;6.226;2023-11-19T03:59:03;100697.81;;;11.76;100.00
76022;BME280;64718;52.124;6.226;2023-11-19T04:01:29;100696.22;;;11.55;100.00
76022;BME280;64718;52.124;6.226;2023-11-19T04:03:56;100707.09;;;11.46;100.00
76022;BME280;64718;52.124;6.226;2023-11-19T04:06:22;100706.00;;;11.32;100.00
76022;BME280;64718;52.124;6.226;2023-11-19T04:08:49;100707.06;;;11.28;100.00
76022;BME280;64718;52.124;6.226;2023-11-19T04:11:17;100698.84;;;11.19;100.00
76022;BME280;64718;52.124;6.226;2023-11-19T04:13:44;100709.66;;;11.28;100.00
76022;BME280;64718;52.124;6.226;2023-11-19T04:16:10;100706.91;;;11.31;100.00
76022;BME280;64718;52.124;6.226;2023-11-19T04:18:37;100711.44;;;11.28;100.00
76022;BME280;64718;52.124;6.226;2023-11-19T04:21:06;100705.53;;;11.24;100.00
76022;BME280;64718;52.124;6.226;2023-11-19T04:23:32;100711.09;;;11.17;100.00
76022;BME280;64718;52.124;6.226;2023-11-19T04:26:01;100724.09;;;10.98;100.00
76022;BME280;64718;52.124;6.226;2023-11-19T04:28:30;100735.94;;;11.05;100.00
76022;BME280;64718;52.124;6.226;2023-11-19T04:30:57;100726.44;;;11.04;100.00
76022;BME280;64718;52.124;6.226;2023-11-19T04:33:23;100742.22;;;11.01;100.00
76022;BME280;64718;52.124;6.226;2023-11-19T04:35:50;100739.72;;;11.17;100.00
76022;BME280;64718;52.124;6.226;2023-11-19T04:38:16;100733.59;;;11.18;100.00
76022;BME280;64718;52.124;6.226;2023-11-19T04:40:43;100737.13;;;11.17;100.00
76022;BME280;64718;52.124;6.226;2023-11-19T04:43:10;100730.56;;;11.27;100.00
76022;BME280;64718;52.124;6.226;2023-11-19T04:45:38;100734.03;;;11.27;100.00
76022;BME280;64718;52.124;6.226;2023-11-19T04:48:05;100741.69;;;11.30;100.00
76022;BME280;64718;52.124;6.226;2023-11-19T04:50:31;100746.47;;;11.39;100.00
76022;BME280;64718;52.124;6.226;2023-11-19T04:52:58;100736.41;;;11.32;100.00
76022;BME280;64718;52.124;6.226;2023-11-19T04:55:24;100725.84;;;11.35;100.00
76022;BME280;64718;52.124;6.226;2023-11-19T04:57:53;100726.69;;;11.35;100.00
76022;BME280;64718;52.124;6.226;2023-11-19T05:00:20;100732.66;;;11.37;100.00
76022;BME280;64718;52.124;6.226;2023-11-19T05:02:49;100731.91;;;11.35;100.00
76022;BME280;64718;52.124;6.226;2023-11-19T05:05:15;100727.31;;;11.40;100.00
76022;BME280;64718;52.124;6.226;2023-11-19T05:07:42;100733.50;;;11.38;100.00
76022;BME280;64718;52.124;6.226;2023-11-19T05:10:09;100726.25;;;11.45;100.00
76022;BME280;64718;52.124;6.226;2023-11-19T05:12:35;100725.78;;;11.36;100.00
76022;BME280;64718;52.124;6.226;2023-11-19T05:15:02;100722.53;;;11.31;100.00
76022;BME280;64718;52.124;6.226;2023-11-19T05:17:29;100725.28;;;11.28;100.00
76022;BME280;64718;52.124;6.226;2023-11-19T05:19:57;100725.44;;;11.25;100.00
76022;BME280;64718;52.124;6.226;2023-11-19T05:22:23;100729.38;;;11.15;100.00
76022;BME280;64718;52.124;6.226;2023-11-19T05:24:51;100742.13;;;11.02;100.00
76022;BME280;64718;52.124;6.226;2023-11-19T05:27:17;100730.88;;;11.02;100.00
76022;BME280;64718;52.124;6.226;2023-11-19T05:29:44;100747.34;;;11.02;100.00
76022;BME280;64718;52.124;6.226;2023-11-19T05:32:10;100744.31;;;11.12;100.00
76022;BME280;64718;52.124;6.226;2023-11-19T05:34:37;100751.69;;;11.02;100.00
76022;BME280;64718;52.124;6.226;2023-11-19T05:37:05;100738.75;;;11.00;100.00
76022;BME280;64718;52.124;6.226;2023-11-19T05:39:32;100740.59;;;10.98;100.00
76022;BME280;64718;52.124;6.226;2023-11-19T05:41:58;100734.84;;;10.90;100.00
76022;BME280;64718;52.124;6.226;2023-11-19T05:44:25;100733.72;;;10.77;100.00
76022;BME280;64718;52.124;6.226;2023-11-19T05:46:51;100731.06;;;10.78;100.00
76022;BME280;64718;52.124;6.226;2023-11-19T05:49:18;100739.00;;;10.75;100.00
76022;BME280;64718;52.124;6.226;2023-11-19T05:51:44;100737.38;;;10.73;100.00
76022;BME280;64718;52.124;6.226;2023-11-19T05:54:12;100737.81;;;10.83;100.00
76022;BME280;64718;52.124;6.226;2023-11-19T05:56:39;100740.34;;;10.84;100.00
76022;BME280;64718;52.124;6.226;2023-11-19T05:59:06;100746.19;;;10.89;100.00
76022;BME280;64718;52.124;6.226;2023-11-19T06:01:40;100744.03;;;10.99;100.00
76022;BME280;64718;52.124;6.226;2023-11-19T06:04:07;100745.66;;;11.01;100.00
76022;BME280;64718;52.124;6.226;2023-11-19T06:06:33;100742.84;;;11.06;100.00
76022;BME280;64718;52.124;6.226;2023-11-19T06:09:00;100753.19;;;11.07;100.00
76022;BME280;64718;52.124;6.226;2023-11-19T06:11:33;100760.28;;;11.04;100.00
76022;BME280;64718;52.124;6.226;2023-11-19T06:14:01;100752.41;;;11.05;100.00
76022;BME280;64718;52.124;6.226;2023-11-19T06:16:28;100751.28;;;11.11;100.00
76022;BME280;64718;52.124;6.226;2023-11-19T06:18:54;100749.44;;;11.13;100.00
76022;BME280;64718;52.124;6.226;2023-11-19T06:21:21;100748.66;;;11.11;100.00
76022;BME280;64718;52.124;6.226;2023-11-19T06:23:48;100756.56;;;11.09;100.00
76022;BME280;64718;52.124;6.226;2023-11-19T06:26:16;100749.16;;;11.00;100.00
76022;BME280;64718;52.124;6.226;2023-11-19T06:28:44;100759.13;;;10.91;100.00
76022;BME280;64718;52.124;6.226;2023-11-19T06:31:11;100762.84;;;10.85;100.00
76022;BME280;64718;52.124;6.226;2023-11-19T06:33:41;100750.53;;;10.89;100.00
76022;BME280;64718;52.124;6.226;2023-11-19T06:36:08;100757.66;;;10.85;100.00
76022;BME280;64718;52.124;6.226;2023-11-19T06:38:35;100765.16;;;10.91;100.00
76022;BME280;64718;52.124;6.226;2023-11-19T06:41:01;100752.22;;;10.90;100.00
76022;BME280;64718;52.124;6.226;2023-11-19T06:43:28;100755.75;;;10.89;100.00
76022;BME280;64718;52.124;6.226;2023-11-19T06:45:56;100753.41;;;10.83;100.00
76022;BME280;64718;52.124;6.226;2023-11-19T06:48:22;100757.22;;;10.94;100.00
76022;BME280;64718;52.124;6.226;2023-11-19T06:50:49;100764.41;;;10.89;100.00
76022;BME280;64718;52.124;6.226;2023-11-19T06:53:15;100778.19;;;10.91;100.00
76022;BME280;64718;52.124;6.226;2023-11-19T06:55:41;100774.47;;;10.97;100.00
76022;BME280;64718;52.124;6.226;2023-11-19T06:58:08;100783.19;;;10.96;100.00
76022;BME280;64718;52.124;6.226;2023-11-19T07:00:35;100776.22;;;10.96;100.00
76022;BME280;64718;52.124;6.226;2023-11-19T07:03:02;100772.59;;;11.00;100.00
76022;BME280;64718;52.124;6.226;2023-11-19T07:05:31;100771.81;;;10.98;100.00
76022;BME280;64718;52.124;6.226;2023-11-19T07:07:58;100780.19;;;11.05;100.00
76022;BME280;64718;52.124;6.226;2023-11-19T07:10:25;100773.09;;;11.08;100.00
76022;BME280;64718;52.124;6.226;2023-11-19T07:12:51;100782.66;;;11.08;100.00
76022;BME280;64718;52.124;6.226;2023-11-19T07:15:18;100780.53;;;11.16;100.00
76022;BME280;64718;52.124;6.226;2023-11-19T07:17:44;100778.00;;;11.15;100.00
76022;BME280;64718;52.124;6.226;2023-11-19T07:20:12;100785.13;;;11.11;100.00
76022;BME280;64718;52.124;6.226;2023-11-19T07:22:42;100787.50;;;11.16;100.00
76022;BME280;64718;52.124;6.226;2023-11-19T07:25:08;100785.41;;;11.05;100.00
76022;BME280;64718;52.124;6.226;2023-11-19T07:27:35;100795.03;;;11.03;100.00
76022;BME280;64718;52.124;6.226;2023-11-19T07:30:01;100788.78;;;11.07;100.00
76022;BME280;64718;52.124;6.226;2023-11-19T07:32:28;100794.88;;;11.06;100.00
76022;BME280;64718;52.124;6.226;2023-11-19T07:34:54;100788.69;;;11.08;100.00
76022;BME280;64718;52.124;6.226;2023-11-19T07:37:23;100806.28;;;11.22;100.00
76022;BME280;64718;52.124;6.226;2023-11-19T07:39:49;100807.06;;;11.24;100.00
76022;BME280;64718;52.124;6.226;2023-11-19T07:42:16;100807.00;;;11.26;100.00
76022;BME280;64718;52.124;6.226;2023-11-19T07:44:43;100804.47;;;11.24;100.00
76022;BME280;64718;52.124;6.226;2023-11-19T07:47:10;100815.28;;;11.34;100.00
76022;BME280;64718;52.124;6.226;2023-11-19T07:49:38;100824.03;;;11.33;100.00
76022;BME280;64718;52.124;6.226;2023-11-19T07:52:05;100823.19;;;11.32;100.00
76022;BME280;64718;52.124;6.226;2023-11-19T07:54:33;100824.03;;;11.33;100.00
76022;BME280;64718;52.124;6.226;2023-11-19T07:57:00;100816.00;;;11.37;100.00
76022;BME280;64718;52.124;6.226;2023-11-19T07:59:26;100828.94;;;11.39;100.00
76022;BME280;64718;52.124;6.226;2023-11-19T08:01:53;100815.84;;;11.40;100.00
76022;BME280;64718;52.124;6.226;2023-11-19T08:04:19;100817.69;;;11.38;100.00
76022;BME280;64718;52.124;6.226;2023-11-19T08:06:46;100815.84;;;11.40;100.00
76022;BME280;64718;52.124;6.226;2023-11-19T08:09:12;100802.91;;;11.39;100.00
76022;BME280;64718;52.124;6.226;2023-11-19T08:11:41;100814.31;;;11.36;100.00
76022;BME280;64718;52.124;6.226;2023-11-19T08:14:08;100806.84;;;11.48;100.00
76022;BME280;64718;52.124;6.226;2023-11-19T08:16:35;100804.59;;;11.40;100.00
76022;BME280;64718;52.124;6.226;2023-11-19T08:19:03;100803.19;;;11.33;100.00
76022;BME280;64718;52.124;6.226;2023-11-19T08:21:29;100795.44;;;11.31;100.00
76022;BME280;64718;52.124;6.226;2023-11-19T08:23:56;100811.16;;;11.30;100.00
76022;BME280;64718;52.124;6.226;2023-11-19T08:26:22;100808.47;;;11.31;100.00
76022;BME280;64718;52.124;6.226;2023-11-19T08:28:50;100800.59;;;11.33;100.00
76022;BME280;64718;52.124;6.226;2023-11-19T08:31:18;100800.59;;;11.33;100.00
76022;BME280;64718;52.124;6.226;2023-11-19T08:33:44;100786.66;;;11.34;100.00
76022;BME280;64718;52.124;6.226;2023-11-19T08:36:15;100792.56;;;11.37;100.00
76022;BME280;64718;52.124;6.226;2023-11-19T08:38:42;100791.66;;;11.38;100.00
76022;BME280;64718;52.124;6.226;2023-11-19T08:41:08;100790.78;;;11.38;100.00
76022;BME280;64718;52.124;6.226;2023-11-19T08:43:35;100793.03;;;11.46;100.00
76022;BME280;64718;52.124;6.226;2023-11-19T08:46:03;100799.25;;;11.43;100.00
76022;BME280;64718;52.124;6.226;2023-11-19T08:48:30;100801.34;;;11.54;100.00
76022;BME280;64718;52.124;6.226;2023-11-19T08:50:57;100802.84;;;11.59;100.00
76022;BME280;64718;52.124;6.226;2023-11-19T08:53:23;100792.28;;;11.62;100.00
76022;BME280;64718;52.124;6.226;2023-11-19T08:55:50;100787.69;;;11.67;100.00
76022;BME280;64718;52.124;6.226;2023-11-19T08:58:16;100788.22;;;11.74;100.00
76022;BME280;64718;52.124;6.226;2023-11-19T09:00:43;100785.56;;;11.76;100.00
76022;BME280;64718;52.124;6.226;2023-11-19T09:03:11;100793.25;;;11.79;100.00
76022;BME280;64718;52.124;6.226;2023-11-19T09:05:37;100799.94;;;11.84;100.00
76022;BME280;64718;52.124;6.226;2023-11-19T09:08:04;100792.41;;;11.78;100.00
76022;BME280;64718;52.124;6.226;2023-11-19T09:10:31;100795.84;;;11.79;100.00
76022;BME280;64718;52.124;6.226;2023-11-19T09:12:58;100800.91;;;11.82;100.00
76022;BME280;64718;52.124;6.226;2023-11-19T09:15:24;100804.22;;;11.85;100.00
76022;BME280;64718;52.124;6.226;2023-11-19T09:17:51;100797.16;;;11.87;100.00
76022;BME280;64718;52.124;6.226;2023-11-19T09:20:19;100799.16;;;11.82;100.00
76022;BME280;64718;52.124;6.226;2023-11-19T09:22:45;100813.22;;;11.97;100.00
76022;BME280;64718;52.124;6.226;2023-11-19T09:25:12;100811.44;;;11.97;100.00
76022;BME280;64718;52.124;6.226;2023-11-19T09:27:42;100807.75;;;12.01;100.00
76022;BME280;64718;52.124;6.226;2023-11-19T09:30:09;100809.06;;;12.10;100.00
76022;BME280;64718;52.124;6.226;2023-11-19T09:32:36;100805.44;;;12.14;100.00
76022;BME280;64718;52.124;6.226;2023-11-19T09:35:03;100810.34;;;12.20;100.00
76022;BME280;64718;52.124;6.226;2023-11-19T09:37:30;100811.47;;;12.15;100.00
76022;BME280;64718;52.124;6.226;2023-11-19T09:39:57;100811.47;;;12.15;100.00
76022;BME280;64718;52.124;6.226;2023-11-19T09:42:24;100812.44;;;12.12;100.00
76022;BME280;64718;52.124;6.226;2023-11-19T09:44:50;100818.13;;;12.03;100.00
76022;BME280;64718;52.124;6.226;2023-11-19T09:47:19;100816.06;;;12.10;100.00
76022;BME280;64718;52.124;6.226;2023-11-19T09:49:45;100811.75;;;12.09;100.00
76022;BME280;64718;52.124;6.226;2023-11-19T09:52:13;100817.47;;;12.17;100.00
76022;BME280;64718;52.124;6.226;2023-11-19T09:54:41;100817.47;;;12.17;100.00
76022;BME280;64718;52.124;6.226;2023-11-19T09:57:08;100799.97;;;12.19;100.00
76022;BME280;64718;52.124;6.226;2023-11-19T09:59:36;100798.97;;;12.21;100.00
76022;BME280;64718;52.124;6.226;2023-11-19T10:02:04;100816.84;;;12.29;100.00
76022;BME280;64718;52.124;6.226;2023-11-19T10:04:32;100804.50;;;12.32;100.00
76022;BME280;64718;52.124;6.226;2023-11-19T10:07:00;100806.19;;;12.33;100.00
76022;BME280;64718;52.124;6.226;2023-11-19T10:09:27;100802.66;;;12.34;100.00
76022;BME280;64718;52.124;6.226;2023-11-19T10:11:55;100810.25;;;12.39;100.00
76022;BME280;64718;52.124;6.226;2023-11-19T10:14:23;100809.72;;;12.32;100.00
76022;BME280;64718;52.124;6.226;2023-11-19T10:16:50;100806.97;;;12.18;100.00
76022;BME280;64718;52.124;6.226;2023-11-19T10:19:19;100811.34;;;12.18;100.00
76022;BME280;64718;52.124;6.226;2023-11-19T10:21:46;100803.13;;;12.25;100.00
76022;BME280;64718;52.124;6.226;2023-11-19T10:24:12;100812.56;;;12.28;100.00
76022;BME280;64718;52.124;6.226;2023-11-19T10:26:40;100803.44;;;12.37;100.00
76022;BME280;64718;52.124;6.226;2023-11-19T10:29:08;100798.28;;;12.35;100.00
76022;BME280;64718;52.124;6.226;2023-11-19T10:31:35;100800.25;;;12.47;100.00
76022;BME280;64718;52.124;6.226;2023-11-19T10:34:01;100782.00;;;12.47;100.00
76022;BME280;64718;52.124;6.226;2023-11-19T10:36:38;100784.47;;;12.50;100.00
76022;BME280;64718;52.124;6.226;2023-11-19T10:39:06;100779.91;;;12.54;100.00
76022;BME280;64718;52.124;6.226;2023-11-19T10:41:34;100776.63;;;12.50;100.00
76022;BME280;64718;52.124;6.226;2023-11-19T10:44:01;100773.03;;;12.53;100.00
76022;BME280;64718;52.124;6.226;2023-11-19T10:46:38;100785.53;;;12.46;100.00
76022;BME280;64718;52.124;6.226;2023-11-19T10:49:05;100787.78;;;12.37;100.00
76022;BME280;64718;52.124;6.226;2023-11-19T10:51:32;100783.78;;;12.29;100.00
76022;BME280;64718;52.124;6.226;2023-11-19T10:54:02;100780.34;;;12.29;100.00
76022;BME280;64718;52.124;6.226;2023-11-19T10:56:31;100762.69;;;12.34;100.00
76022;BME280;64718;52.124;6.226;2023-11-19T10:58:59;100783.09;;;12.43;100.00
76022;BME280;64718;52.124;6.226;2023-11-19T11:01:27;100770.09;;;12.59;100.00
76022;BME280;64718;52.124;6.226;2023-11-19T11:04:02;100768.16;;;12.62;100.00
76022;BME280;64718;52.124;6.226;2023-11-19T11:06:29;100761.41;;;12.58;100.00
76022;BME280;64718;52.124;6.226;2023-11-19T11:08:56;100777.22;;;12.55;100.00
76022;BME280;64718;52.124;6.226;2023-11-19T11:11:24;100765.88;;;12.56;100.00
76022;BME280;64718;52.124;6.226;2023-11-19T11:13:53;100765.31;;;12.67;100.00
76022;BME280;64718;52.124;6.226;2023-11-19T11:16:22;100759.56;;;12.78;100.00
76022;BME280;64718;52.124;6.226;2023-11-19T11:18:50;100762.31;;;12.75;100.00
76022;BME280;64718;52.124;6.226;2023-11-19T11:21:21;100766.91;;;12.70;100.00
76022;BME280;64718;52.124;6.226;2023-11-19T11:24:09;100752.25;;;12.67;100.00
76022;BME280;64718;52.124;6.226;2023-11-19T11:30:01;100757.81;;;12.61;100.00
76022;BME280;64718;52.124;6.226;2023-11-19T11:32:35;100750.28;;;12.55;100.00
76022;BME280;64718;52.124;6.226;2023-11-19T11:35:19;100755.28;;;12.59;100.00
76022;BME280;64718;52.124;6.226;2023-11-19T11:38:00;100743.28;;;12.73;100.00
76022;BME280;64718;52.124;6.226;2023-11-19T11:40:27;100740.34;;;12.79;100.00
76022;BME280;64718;52.124;6.226;2023-11-19T11:42:53;100741.63;;;12.87;100.00
76022;BME280;64718;52.124;6.226;2023-11-19T11:45:35;100742.22;;;12.92;100.00
76022;BME280;64718;52.124;6.226;2023-11-19T11:48:19;100736.66;;;12.98;100.00
76022;BME280;64718;52.124;6.226;2023-11-19T11:50:52;100741.72;;;12.86;100.00
76022;BME280;64718;52.124;6.226;2023-11-19T11:53:22;100731.28;;;12.86;100.00
76022;BME280;64718;52.124;6.226;2023-11-19T11:55:57;100739.78;;;12.89;100.00
76022;BME280;64718;52.124;6.226;2023-11-19T11:58:35;100733.56;;;12.92;100.00
76022;BME280;64718;52.124;6.226;2023-11-19T12:01:04;100728.56;;;12.87;100.00
76022;BME280;64718;52.124;6.226;2023-11-19T12:03:34;100727.22;;;12.80;100.00
76022;BME280;64718;52.124;6.226;2023-11-19T12:06:01;100726.72;;;12.74;100.00
76022;BME280;64718;52.124;6.226;2023-11-19T12:08:29;100727.06;;;12.83;100.00
76022;BME280;64718;52.124;6.226;2023-11-19T12:10:58;100720.25;;;12.81;100.00
76022;BME280;64718;52.124;6.226;2023-11-19T12:13:42;100719.81;;;12.73;100.00
76022;BME280;64718;52.124;6.226;2023-11-19T12:16:12;100717.66;;;12.63;100.00
76022;BME280;64718;52.124;6.226;2023-11-19T12:18:40;100722.28;;;12.58;100.00
76022;BME280;64718;52.124;6.226;2023-11-19T12:21:07;100721.25;;;12.45;100.00
76022;BME280;64718;52.124;6.226;2023-11-19T12:23:46;100725.69;;;12.43;100.00
76022;BME280;64718;52.124;6.226;2023-11-19T12:26:21;100725.09;;;12.38;100.00
76022;BME280;64718;52.124;6.226;2023-11-19T12:28:57;100736.38;;;12.39;100.00
76022;BME280;64718;52.124;6.226;2023-11-19T12:31:24;100723.69;;;12.48;100.00
76022;BME280;64718;52.124;6.226;2023-11-19T12:33:51;100725.91;;;12.56;100.00
76022;BME280;64718;52.124;6.226;2023-11-19T12:36:18;100720.75;;;12.54;100.00
76022;BME280;64718;52.124;6.226;2023-11-19T12:38:46;100726.66;;;12.58;100.00
76022;BME280;64718;52.124;6.226;2023-11-19T12:41:12;100727.25;;;12.63;100.00
76022;BME280;64718;52.124;6.226;2023-11-19T12:43:43;100716.28;;;12.74;100.00
76022;BME280;64718;52.124;6.226;2023-11-19T12:46:19;100718.88;;;12.74;100.00